Strona główna
METAR-TAF:

METAR-TAF

Lotnisko :

Port lotniczy Carcassonne

Carcassonne, Francja

Szerokość geograficzna: 43-13N, Długość geograficzna: 002-19E, wysokość: 130 m

Aktualna obserwacja pogody

Raport powstał 39 minut temu, godzina 18:30 UTC
Wiatr 10 kt od zachód, zmienny między południowy zachód i zachodnio-północny zachód
Temperatura 28°C
Wilgotność 45%
Ciśnienie 1013 hPa
Widzialność 10 km lub więcej
Mało chmury na wysokości 7200 ft
Rozproszone chmury na wysokości 11000 ft

METAR: LFMK 171830Z AUTO 26010KT 230V290 9999 FEW072 SCT110 28/15 Q1013

czas: 21:09 (19:09 UTC)

Prognoza

Raport powstał 5 godziny i 9 minut temu, godzina 14:00 UTC
Prognoza ważna od 17 godzina 15 UTC do 18 godzina 15 UTC
Wiatr 10 kt od zachodnio-północny zachód
Widzialność 10 km lub więcej
Brak chmur poniżej 1500 m i brak chmur cumulonimbus
Przejściowo
od 18 godzina 01 UTC do 18 godzina 10 UTC
Przerywane chmury na wysokości 4000 ft

TAF: LFMK 171400Z 1715/1815 29010KT CAVOK TEMPO 1801/1810 BKN040

Obserwacja i prognoza pogody dla ponad 4000 lotnisk (raport METAR i TAF).

Dostępne stacje oznaczono żółtymi i czerwonymi punktami na mapie.

Najedź kursorem aby zobaczyć nazwę stacji.

Kliknij aby zobaczyć obserwacje i prognozy pogody.

Aby zmienić mapę: kliknij na zielony przycisk z czarnym krzyżykiem, aby powiększyć; na zielony przycisk z myślnikiem, aby pomniejszyć; na zielone strzałki, aby przejść do map sąsiednich.


METAR-TAF: